MTN8109 TJSJ-TAPA
Flight info
| Callsign | MTN8109 |
|---|---|
| Flight time | N/A |
| Altitude | 11000 |
| Route | SJU RTE2 COY G633 ANU |
| Aircraft | C408/M-SDFGRY/S |
Departure
| Time | 2026-04-30 14:34 |
|---|---|
| Airport | Luis Munoz Marin International Airport (TJSJ) |
Arrival
| Time | N/A |
|---|---|
| Airport | V. C. Bird International Airport (TAPA) |
| Time | Latitude | Longitude | Altitude | Speed | Heading |
|---|---|---|---|---|---|
| 2026-04-30 14:25 | 18.43633 | -65.99824 | -27 ft | 0 kts | 360° |
| 2026-04-30 14:28 | 18.43645 | -65.99836 | -39 ft | 8 kts | 274° |
| 2026-04-30 14:29 | 18.43528 | -65.99916 | -27 ft | 10 kts | 194° |
| 2026-04-30 14:29 | 18.43467 | -66.00024 | -32 ft | 16 kts | 270° |
| 2026-04-30 14:30 | 18.43467 | -66.00415 | -33 ft | 22 kts | 269° |
| 2026-04-30 14:31 | 18.43468 | -66.00745 | -31 ft | 16 kts | 269° |
| 2026-04-30 14:31 | 18.43467 | -66.01030 | -32 ft | 15 kts | 270° |
| 2026-04-30 14:31 | 18.43467 | -66.01159 | -34 ft | 13 kts | 270° |
| 2026-04-30 14:32 | 18.43546 | -66.01239 | -40 ft | 10 kts | 292° |
| 2026-04-30 14:32 | 18.43551 | -66.01313 | -34 ft | 12 kts | 270° |
| 2026-04-30 14:32 | 18.43586 | -66.01358 | -33 ft | 9 kts | 354° |
| 2026-04-30 14:33 | 18.43666 | -66.01359 | -33 ft | 14 kts | 358° |
| 2026-04-30 14:33 | 18.43858 | -66.01374 | -44 ft | 12 kts | 334° |
| 2026-04-30 14:33 | 18.43929 | -66.01360 | -50 ft | 10 kts | 71° |
| 2026-04-30 14:34 | 18.43971 | -66.01249 | -52 ft | 38 kts | 68° |
| 2026-04-30 14:34 | 18.44163 | -66.00766 | -3 ft | 99 kts | 68° |
| 2026-04-30 14:34 | 18.44491 | -66.00038 | 372 ft | 119 kts | 65° |
| 2026-04-30 14:34 | 18.44869 | -65.99249 | 937 ft | 119 kts | 65° |
| 2026-04-30 14:35 | 18.45629 | -65.97686 | 1903 ft | 129 kts | 68° |
| 2026-04-30 14:35 | 18.45986 | -65.96770 | 2286 ft | 140 kts | 74° |
| 2026-04-30 14:35 | 18.46289 | -65.95781 | 2782 ft | 142 kts | 77° |
| 2026-04-30 14:36 | 18.46347 | -65.94824 | 3453 ft | 122 kts | 101° |
| 2026-04-30 14:36 | 18.46267 | -65.93966 | 4116 ft | 114 kts | 96° |
| 2026-04-30 14:36 | 18.46221 | -65.93147 | 4720 ft | 110 kts | 94° |
| 2026-04-30 14:36 | 18.46192 | -65.92332 | 5203 ft | 113 kts | 93° |
| 2026-04-30 14:37 | 18.46168 | -65.91500 | 5702 ft | 114 kts | 91° |
| 2026-04-30 14:37 | 18.46147 | -65.90656 | 6194 ft | 117 kts | 90° |
| 2026-04-30 14:37 | 18.46128 | -65.89797 | 6677 ft | 118 kts | 89° |
| 2026-04-30 14:37 | 18.46108 | -65.88921 | 7120 ft | 121 kts | 90° |
| 2026-04-30 14:38 | 18.46089 | -65.88030 | 7596 ft | 121 kts | 90° |
| 2026-04-30 14:38 | 18.46069 | -65.87148 | 8069 ft | 123 kts | 90° |
| 2026-04-30 14:38 | 18.46051 | -65.86241 | 8547 ft | 124 kts | 90° |
| 2026-04-30 14:38 | 18.46030 | -65.85320 | 9022 ft | 127 kts | 90° |
| 2026-04-30 14:39 | 18.46010 | -65.84386 | 9509 ft | 128 kts | 90° |
| 2026-04-30 14:39 | 18.45989 | -65.83439 | 9976 ft | 130 kts | 91° |
| 2026-04-30 14:39 | 18.45969 | -65.82475 | 10394 ft | 134 kts | 92° |
| 2026-04-30 14:40 | 18.45921 | -65.80417 | 11002 ft | 161 kts | 93° |
| 2026-04-30 14:40 | 18.45935 | -65.79136 | 11023 ft | 188 kts | 86° |
| 2026-04-30 14:40 | 18.46043 | -65.77695 | 11020 ft | 205 kts | 86° |
| 2026-04-30 14:40 | 18.46136 | -65.76178 | 11005 ft | 202 kts | 86° |
| 2026-04-30 14:41 | 18.46229 | -65.74736 | 11000 ft | 194 kts | 86° |
| 2026-04-30 14:41 | 18.46324 | -65.73291 | 10999 ft | 201 kts | 86° |
| 2026-04-30 14:41 | 18.46420 | -65.71825 | 11001 ft | 200 kts | 86° |
| 2026-04-30 14:41 | 18.46515 | -65.70365 | 10998 ft | 200 kts | 87° |
| 2026-04-30 14:42 | 18.46611 | -65.68903 | 10994 ft | 201 kts | 87° |
| 2026-04-30 14:42 | 18.46706 | -65.67436 | 10996 ft | 201 kts | 86° |
| 2026-04-30 14:42 | 18.46801 | -65.65970 | 10996 ft | 200 kts | 87° |
| 2026-04-30 14:42 | 18.46896 | -65.64508 | 10996 ft | 200 kts | 87° |
| 2026-04-30 14:43 | 18.46991 | -65.63047 | 10998 ft | 200 kts | 86° |
| 2026-04-30 14:43 | 18.47085 | -65.61595 | 10996 ft | 202 kts | 86° |
| 2026-04-30 14:43 | 18.47180 | -65.60125 | 10997 ft | 201 kts | 86° |
| 2026-04-30 14:43 | 18.47275 | -65.58660 | 10998 ft | 200 kts | 86° |
| 2026-04-30 14:44 | 18.47369 | -65.57198 | 10996 ft | 200 kts | 86° |
| 2026-04-30 14:44 | 18.47464 | -65.55733 | 10994 ft | 201 kts | 86° |
| 2026-04-30 14:44 | 18.47558 | -65.54267 | 10995 ft | 201 kts | 86° |
| 2026-04-30 14:44 | 18.47652 | -65.52802 | 10997 ft | 200 kts | 86° |
| 2026-04-30 14:45 | 18.47746 | -65.51330 | 10996 ft | 201 kts | 86° |
| 2026-04-30 14:45 | 18.47841 | -65.49860 | 10995 ft | 202 kts | 86° |
| 2026-04-30 14:45 | 18.47935 | -65.48383 | 10994 ft | 202 kts | 86° |
| 2026-04-30 14:45 | 18.48029 | -65.46927 | 10995 ft | 201 kts | 86° |
| 2026-04-30 14:46 | 18.48123 | -65.45438 | 10998 ft | 202 kts | 86° |
| 2026-04-30 14:46 | 18.48218 | -65.43962 | 10997 ft | 202 kts | 86° |
| 2026-04-30 14:46 | 18.48311 | -65.42504 | 10998 ft | 202 kts | 86° |
| 2026-04-30 14:46 | 18.48405 | -65.41025 | 10998 ft | 201 kts | 86° |
| 2026-04-30 14:47 | 18.48499 | -65.39553 | 10995 ft | 201 kts | 86° |
| 2026-04-30 14:47 | 18.48592 | -65.38078 | 10996 ft | 202 kts | 86° |
| 2026-04-30 14:47 | 18.48686 | -65.36605 | 10995 ft | 202 kts | 86° |
| 2026-04-30 14:47 | 18.48780 | -65.35130 | 10989 ft | 202 kts | 86° |
| 2026-04-30 14:48 | 18.48873 | -65.33660 | 10989 ft | 201 kts | 86° |
| 2026-04-30 14:48 | 18.48966 | -65.32187 | 10990 ft | 201 kts | 86° |
| 2026-04-30 14:48 | 18.49058 | -65.30729 | 10990 ft | 202 kts | 86° |
| 2026-04-30 14:48 | 18.49150 | -65.29254 | 10991 ft | 202 kts | 86° |
| 2026-04-30 14:49 | 18.49070 | -65.27797 | 10986 ft | 200 kts | 105° |
| 2026-04-30 14:49 | 18.48504 | -65.26467 | 10988 ft | 199 kts | 122° |
| 2026-04-30 14:49 | 18.47814 | -65.25199 | 10990 ft | 199 kts | 120° |
| 2026-04-30 14:49 | 18.47130 | -65.23924 | 10991 ft | 200 kts | 121° |
| 2026-04-30 14:50 | 18.45753 | -65.21359 | 10998 ft | 201 kts | 121° |
| 2026-04-30 14:50 | 18.45065 | -65.20079 | 11000 ft | 201 kts | 121° |
| 2026-04-30 14:51 | 18.43689 | -65.17518 | 11001 ft | 200 kts | 121° |
| 2026-04-30 14:51 | 18.43010 | -65.16256 | 11002 ft | 200 kts | 120° |
| 2026-04-30 14:51 | 18.41634 | -65.13697 | 11004 ft | 201 kts | 120° |
| 2026-04-30 14:52 | 18.40947 | -65.12420 | 11005 ft | 201 kts | 121° |
| 2026-04-30 14:52 | 18.39568 | -65.09859 | 11002 ft | 201 kts | 120° |
| 2026-04-30 14:52 | 18.38882 | -65.08583 | 11003 ft | 200 kts | 121° |
| 2026-04-30 14:53 | 18.37511 | -65.06038 | 11006 ft | 199 kts | 120° |
| 2026-04-30 14:53 | 18.36829 | -65.04770 | 11004 ft | 199 kts | 121° |
| 2026-04-30 14:54 | 18.35267 | -65.02390 | 10994 ft | 198 kts | 142° |
| 2026-04-30 14:54 | 18.32886 | -65.01047 | 10998 ft | 195 kts | 156° |
| 2026-04-30 14:55 | 18.30444 | -64.99769 | 11001 ft | 196 kts | 155° |
| 2026-04-30 14:55 | 18.29220 | -64.99128 | 11000 ft | 197 kts | 156° |
| 2026-04-30 14:55 | 18.26770 | -64.97848 | 10980 ft | 196 kts | 155° |
| 2026-04-30 14:56 | 18.24329 | -64.96572 | 10982 ft | 196 kts | 155° |
| 2026-04-30 14:56 | 18.21891 | -64.95298 | 10981 ft | 195 kts | 155° |
| 2026-04-30 14:57 | 18.20672 | -64.94662 | 10981 ft | 195 kts | 155° |
| 2026-04-30 14:57 | 18.18237 | -64.93390 | 10984 ft | 195 kts | 155° |
| 2026-04-30 14:58 | 18.15802 | -64.92118 | 10984 ft | 196 kts | 155° |
| 2026-04-30 14:58 | 18.14579 | -64.91480 | 10984 ft | 196 kts | 155° |
| 2026-04-30 14:58 | 18.12142 | -64.90208 | 10983 ft | 196 kts | 156° |
| 2026-04-30 14:59 | 18.09708 | -64.88939 | 10985 ft | 196 kts | 155° |
| 2026-04-30 15:00 | 18.06039 | -64.87027 | 10984 ft | 196 kts | 155° |
| 2026-04-30 15:00 | 18.03595 | -64.85753 | 10987 ft | 195 kts | 155° |
| 2026-04-30 15:01 | 18.01165 | -64.84486 | 10990 ft | 195 kts | 155° |
| 2026-04-30 15:01 | 18.00360 | -64.84067 | 10991 ft | 194 kts | 155° |
| 2026-04-30 15:01 | 17.97528 | -64.82592 | 10993 ft | 195 kts | 156° |
| 2026-04-30 15:02 | 17.96313 | -64.81960 | 10995 ft | 195 kts | 156° |
| 2026-04-30 15:02 | 17.95099 | -64.81328 | 10996 ft | 195 kts | 156° |
| 2026-04-30 15:03 | 17.91451 | -64.79430 | 11003 ft | 195 kts | 155° |
| 2026-04-30 15:03 | 17.89037 | -64.78174 | 11004 ft | 195 kts | 156° |
| 2026-04-30 15:04 | 17.86606 | -64.76910 | 11004 ft | 195 kts | 155° |
| 2026-04-30 15:04 | 17.82966 | -64.75017 | 11006 ft | 195 kts | 156° |
| 2026-04-30 15:05 | 17.79325 | -64.73126 | 11008 ft | 194 kts | 155° |
| 2026-04-30 15:06 | 17.76896 | -64.71865 | 11011 ft | 195 kts | 155° |
| 2026-04-30 15:06 | 17.74488 | -64.70568 | 11010 ft | 195 kts | 147° |
| 2026-04-30 15:07 | 17.73031 | -64.68197 | 10990 ft | 198 kts | 103° |
| 2026-04-30 15:07 | 17.72421 | -64.65385 | 10995 ft | 199 kts | 103° |
| 2026-04-30 15:08 | 17.71798 | -64.62555 | 10997 ft | 199 kts | 104° |
| 2026-04-30 15:08 | 17.70967 | -64.58776 | 10993 ft | 199 kts | 104° |
| 2026-04-30 15:09 | 17.70348 | -64.55966 | 10997 ft | 199 kts | 104° |
| 2026-04-30 15:09 | 17.69726 | -64.53144 | 10997 ft | 199 kts | 103° |
| 2026-04-30 15:10 | 17.69102 | -64.50314 | 10996 ft | 199 kts | 104° |
| 2026-04-30 15:11 | 17.67859 | -64.44682 | 10992 ft | 197 kts | 104° |
| 2026-04-30 15:11 | 17.67238 | -64.41873 | 10993 ft | 197 kts | 103° |
| 2026-04-30 15:12 | 17.66310 | -64.37677 | 10992 ft | 197 kts | 104° |
| 2026-04-30 15:13 | 17.65691 | -64.34878 | 10990 ft | 197 kts | 104° |
| 2026-04-30 15:14 | 17.64449 | -64.29276 | 10992 ft | 197 kts | 103° |
| 2026-04-30 15:14 | 17.63519 | -64.25077 | 10992 ft | 198 kts | 104° |
| 2026-04-30 15:16 | 17.61959 | -64.18055 | 10990 ft | 198 kts | 103° |
| 2026-04-30 15:17 | 17.60711 | -64.12440 | 10989 ft | 198 kts | 104° |
| 2026-04-30 15:18 | 17.59152 | -64.05444 | 10988 ft | 197 kts | 104° |
| 2026-04-30 15:19 | 17.58213 | -64.01237 | 10985 ft | 198 kts | 104° |